首页
METAR-TAF:

METAR-TAF

机场 :

Dutchess County Airport

波啟浦夕, 紐約州, 美国

纬度: 41-37-36N, 经度: 073-53-03W, 海拔: 50米

当前天气观测

该预报发布于23分钟前的06:53 UTC
风速6节,风向
温度 4°C
湿度 60%
气压 1008 hPa
能見度: 16.1公里
天空无云

METAR: KPOU 020653Z AUTO 01006KT 10SM CLR 04/M03 A2976 RMK AO2 SLP076 T00391033

时间: 03:16 (07:16 UTC)

预报

该预报发布于1小时和56分钟前的05:20 UTC
预报有效从02日的 06点(UTC)到 03日的 06点(UTC)
风速5节,风向
能見度: 10公里
散云层高于4500英尺
散云层高于25000英尺
从 02日的 1300点(UTC)
风速14节,风向北转西北,有时为24节阵风
能見度: 10公里
散云层高于4000英尺
多云层高于20000英尺
从 02日的 1600点(UTC)
风速15节,风向北转西北,有时为28节阵风
能見度: 10公里
多云层高于4000英尺
从 02日的 2200点(UTC)
风速12节,风向北转西北,有时为24节阵风
能見度: 10公里
阴天层高于2500英尺
附近有阵雨
几率 30%
从 02日的 22点(UTC)到 02日的 24点(UTC)
能見度: 9.7公里
多云层高于2000英尺
小雨, 轻雾
从 03日的 0000点(UTC)
风速12节,风向西北
能見度: 9.7公里
阴天层高于2000英尺
小雨, 轻雾

TAF: KPOU 020520Z 0206/0306 36005KT P6SM SCT045 SCT250 FM021300 34014G24KT P6SM SCT040 BKN200 FM021600 34015G28KT P6SM BKN040 FM022200 34012G24KT P6SM VCSH OVC025 PROB30 0222/0224 6SM -RA BR BKN020 FM030000 32012KT 6SM -RA BR OVC020

超过4000个机场的气象观测和天气预报(METAR&TAF报告)。

可查询的气象台以黄色和红色小点在地图上表示。

将鼠标移到小点上方,可查看气象台名称。

然后点击查看天气观测和预报。

如需切换地图:点击带黑十字的绿色按钮放大地图;点击带横线的绿色按钮缩小地图;或者点击绿色箭头查看邻近地区的地图。


METAR-TAF: